sensor_id;sensor_type;location;lat;lon;timestamp;pressure;altitude;pressure_sealevel;temperature;humidity
56671;BME280;42545;50.054;8.306;2023-08-06T00:02:11;99039.38;;;15.74;99.88
56671;BME280;42545;50.054;8.306;2023-08-06T00:04:37;99034.97;;;15.72;100.00
56671;BME280;42545;50.054;8.306;2023-08-06T00:07:04;99033.16;;;15.75;99.79
56671;BME280;42545;50.054;8.306;2023-08-06T00:09:33;99024.25;;;15.76;99.83
56671;BME280;42545;50.054;8.306;2023-08-06T00:12:00;99029.56;;;15.76;99.40
56671;BME280;42545;50.054;8.306;2023-08-06T00:14:27;99031.31;;;15.79;99.32
56671;BME280;42545;50.054;8.306;2023-08-06T00:16:54;99026.84;;;15.80;99.26
56671;BME280;42545;50.054;8.306;2023-08-06T00:19:21;99021.53;;;15.80;99.27
56671;BME280;42545;50.054;8.306;2023-08-06T00:21:48;99010.03;;;15.79;98.99
56671;BME280;42545;50.054;8.306;2023-08-06T00:24:15;99012.69;;;15.79;99.14
56671;BME280;42545;50.054;8.306;2023-08-06T00:26:44;99012.63;;;15.81;99.55
56671;BME280;42545;50.054;8.306;2023-08-06T00:29:11;99003.78;;;15.80;99.55
56671;BME280;42545;50.054;8.306;2023-08-06T00:31:38;99000.22;;;15.81;99.88
56671;BME280;42545;50.054;8.306;2023-08-06T00:34:05;98996.66;;;15.81;99.66
56671;BME280;42545;50.054;8.306;2023-08-06T00:36:32;98997.59;;;15.80;100.00
56671;BME280;42545;50.054;8.306;2023-08-06T00:38:59;98998.47;;;15.80;100.00
56671;BME280;42545;50.054;8.306;2023-08-06T00:41:26;98981.84;;;15.69;100.00
56671;BME280;42545;50.054;8.306;2023-08-06T00:43:54;98987.97;;;15.72;100.00
56671;BME280;42545;50.054;8.306;2023-08-06T00:46:21;98984.31;;;15.78;100.00
56671;BME280;42545;50.054;8.306;2023-08-06T00:48:48;98960.69;;;15.63;100.00
56671;BME280;42545;50.054;8.306;2023-08-06T00:51:15;98977.31;;;15.75;100.00
56671;BME280;42545;50.054;8.306;2023-08-06T00:53:42;98971.13;;;15.72;100.00
56671;BME280;42545;50.054;8.306;2023-08-06T00:56:10;98976.47;;;15.70;100.00
56671;BME280;42545;50.054;8.306;2023-08-06T00:58:37;98972.91;;;15.71;100.00
56671;BME280;42545;50.054;8.306;2023-08-06T01:01:06;98975.56;;;15.71;100.00
56671;BME280;42545;50.054;8.306;2023-08-06T01:03:33;98966.75;;;15.69;100.00
56671;BME280;42545;50.054;8.306;2023-08-06T01:06:00;98972.09;;;15.68;100.00
56671;BME280;42545;50.054;8.306;2023-08-06T01:08:35;98956.19;;;15.66;100.00
56671;BME280;42545;50.054;8.306;2023-08-06T01:11:19;98953.56;;;15.65;100.00
56671;BME280;42545;50.054;8.306;2023-08-06T01:13:54;98956.19;;;15.66;100.00
56671;BME280;42545;50.054;8.306;2023-08-06T01:16:26;98947.28;;;15.67;100.00
56671;BME280;42545;50.054;8.306;2023-08-06T01:18:53;98942.13;;;15.61;100.00
56671;BME280;42545;50.054;8.306;2023-08-06T01:21:22;98943.75;;;15.67;100.00
56671;BME280;42545;50.054;8.306;2023-08-06T01:23:49;98942.91;;;15.66;100.00
56671;BME280;42545;50.054;8.306;2023-08-06T01:26:22;98944.63;;;15.67;100.00
56671;BME280;42545;50.054;8.306;2023-08-06T01:28:55;98946.41;;;15.68;100.00
56671;BME280;42545;50.054;8.306;2023-08-06T01:31:27;98952.59;;;15.67;100.00
56671;BME280;42545;50.054;8.306;2023-08-06T01:33:58;98933.19;;;15.64;100.00
56671;BME280;42545;50.054;8.306;2023-08-06T01:36:28;98940.16;;;15.69;100.00
56671;BME280;42545;50.054;8.306;2023-08-06T01:38:55;98937.50;;;15.69;100.00
56671;BME280;42545;50.054;8.306;2023-08-06T01:41:22;98936.59;;;15.70;100.00
56671;BME280;42545;50.054;8.306;2023-08-06T01:43:49;98941.94;;;15.69;100.00
56671;BME280;42545;50.054;8.306;2023-08-06T01:46:17;98945.59;;;15.65;100.00
56671;BME280;42545;50.054;8.306;2023-08-06T01:48:44;98933.28;;;15.61;100.00
56671;BME280;42545;50.054;8.306;2023-08-06T01:51:11;98936.84;;;15.58;100.00
56671;BME280;42545;50.054;8.306;2023-08-06T01:53:40;98936.03;;;15.54;100.00
56671;BME280;42545;50.054;8.306;2023-08-06T01:56:07;98908.03;;;15.38;100.00
56671;BME280;42545;50.054;8.306;2023-08-06T01:58:34;98934.34;;;15.52;100.00
56671;BME280;42545;50.054;8.306;2023-08-06T02:01:01;98928.13;;;15.51;100.00
56671;BME280;42545;50.054;8.306;2023-08-06T02:03:28;98934.41;;;15.49;100.00
56671;BME280;42545;50.054;8.306;2023-08-06T02:05:55;98931.78;;;15.47;100.00
56671;BME280;42545;50.054;8.306;2023-08-06T02:08:22;98934.44;;;15.47;100.00
56671;BME280;42545;50.054;8.306;2023-08-06T02:10:50;98930.91;;;15.47;100.00
56671;BME280;42545;50.054;8.306;2023-08-06T02:13:17;98899.38;;;15.30;100.00
56671;BME280;42545;50.054;8.306;2023-08-06T02:15:44;98920.31;;;15.45;100.00
56671;BME280;42545;50.054;8.306;2023-08-06T02:18:12;98916.81;;;15.42;100.00
56671;BME280;42545;50.054;8.306;2023-08-06T02:20:40;98911.50;;;15.42;100.00
56671;BME280;42545;50.054;8.306;2023-08-06T02:23:07;98911.56;;;15.38;100.00
56671;BME280;42545;50.054;8.306;2023-08-06T02:25:34;98911.69;;;15.34;100.00
56671;BME280;42545;50.054;8.306;2023-08-06T02:28:02;98917.00;;;15.34;100.00
56671;BME280;42545;50.054;8.306;2023-08-06T02:30:29;98910.84;;;15.32;100.00
56671;BME280;42545;50.054;8.306;2023-08-06T02:32:57;98903.75;;;15.32;100.00
56671;BME280;42545;50.054;8.306;2023-08-06T02:35:24;98905.53;;;15.32;100.00
56671;BME280;42545;50.054;8.306;2023-08-06T02:37:51;98889.59;;;15.32;100.00
56671;BME280;42545;50.054;8.306;2023-08-06T02:40:17;98889.59;;;15.32;100.00
56671;BME280;42545;50.054;8.306;2023-08-06T02:42:44;98888.78;;;15.28;100.00
56671;BME280;42545;50.054;8.306;2023-08-06T02:45:13;98874.03;;;15.13;100.00
56671;BME280;42545;50.054;8.306;2023-08-06T02:47:40;98890.69;;;15.22;100.00
56671;BME280;42545;50.054;8.306;2023-08-06T02:50:07;98880.97;;;15.21;100.00
56671;BME280;42545;50.054;8.306;2023-08-06T02:52:35;98881.00;;;15.19;100.00
56671;BME280;42545;50.054;8.306;2023-08-06T02:55:05;98874.78;;;15.18;100.00
56671;BME280;42545;50.054;8.306;2023-08-06T02:57:31;98870.34;;;15.21;100.00
56671;BME280;42545;50.054;8.306;2023-08-06T02:59:58;98869.44;;;15.20;100.00
56671;BME280;42545;50.054;8.306;2023-08-06T03:02:27;98869.44;;;15.20;100.00
56671;BME280;42545;50.054;8.306;2023-08-06T03:04:54;98859.78;;;15.17;100.00
56671;BME280;42545;50.054;8.306;2023-08-06T03:07:21;98860.69;;;15.15;100.00
56671;BME280;42545;50.054;8.306;2023-08-06T03:09:48;98867.81;;;15.13;100.00
56671;BME280;42545;50.054;8.306;2023-08-06T03:12:15;98859.84;;;15.13;100.00
56671;BME280;42545;50.054;8.306;2023-08-06T03:14:42;98859.03;;;15.11;100.00
56671;BME280;42545;50.054;8.306;2023-08-06T03:17:09;98857.25;;;15.11;100.00
56671;BME280;42545;50.054;8.306;2023-08-06T03:19:38;98853.72;;;15.11;100.00
56671;BME280;42545;50.054;8.306;2023-08-06T03:22:05;98846.66;;;15.10;100.00
56671;BME280;42545;50.054;8.306;2023-08-06T03:24:32;98853.72;;;15.09;100.00
56671;BME280;42545;50.054;8.306;2023-08-06T03:26:59;98844.09;;;15.05;100.00
56671;BME280;42545;50.054;8.306;2023-08-06T03:29:28;98848.41;;;15.09;100.00
56671;BME280;42545;50.054;8.306;2023-08-06T03:31:55;98848.41;;;15.11;100.00
56671;BME280;42545;50.054;8.306;2023-08-06T03:34:21;98851.06;;;15.09;100.00
56671;BME280;42545;50.054;8.306;2023-08-06T03:36:50;98843.16;;;15.08;100.00
56671;BME280;42545;50.054;8.306;2023-08-06T03:39:18;98822.19;;;14.94;100.00
56671;BME280;42545;50.054;8.306;2023-08-06T03:41:45;98835.31;;;15.02;100.00
56671;BME280;42545;50.054;8.306;2023-08-06T03:44:12;98842.41;;;15.01;100.00
56671;BME280;42545;50.054;8.306;2023-08-06T03:46:38;98844.28;;;14.96;100.00
56671;BME280;42545;50.054;8.306;2023-08-06T03:49:05;98839.91;;;14.95;100.00
56671;BME280;42545;50.054;8.306;2023-08-06T03:51:34;98843.47;;;14.92;100.00
56671;BME280;42545;50.054;8.306;2023-08-06T03:54:03;98837.25;;;14.93;100.00
56671;BME280;42545;50.054;8.306;2023-08-06T03:56:29;98833.72;;;14.93;100.00
56671;BME280;42545;50.054;8.306;2023-08-06T03:58:57;98833.72;;;14.93;100.00
56671;BME280;42545;50.054;8.306;2023-08-06T04:01:24;98831.97;;;14.92;100.00
56671;BME280;42545;50.054;8.306;2023-08-06T04:03:51;98837.28;;;14.92;100.00
56671;BME280;42545;50.054;8.306;2023-08-06T04:06:18;98836.44;;;14.91;100.00
56671;BME280;42545;50.054;8.306;2023-08-06T04:08:45;98842.72;;;14.86;100.00
56671;BME280;42545;50.054;8.306;2023-08-06T04:11:13;98844.50;;;14.85;100.00
56671;BME280;42545;50.054;8.306;2023-08-06T04:13:42;98835.75;;;14.80;100.00
56671;BME280;42545;50.054;8.306;2023-08-06T04:16:09;98840.06;;;14.86;100.00
56671;BME280;42545;50.054;8.306;2023-08-06T04:18:36;98830.34;;;14.86;100.00
56671;BME280;42545;50.054;8.306;2023-08-06T04:21:03;98826.78;;;14.86;100.00
56671;BME280;42545;50.054;8.306;2023-08-06T04:23:32;98825.94;;;14.84;100.00
56671;BME280;42545;50.054;8.306;2023-08-06T04:25:59;98829.50;;;14.84;100.00
56671;BME280;42545;50.054;8.306;2023-08-06T04:28:27;98828.63;;;14.82;100.00
56671;BME280;42545;50.054;8.306;2023-08-06T04:30:54;98830.53;;;14.77;100.00
56671;BME280;42545;50.054;8.306;2023-08-06T04:33:21;98827.03;;;14.75;100.00
56671;BME280;42545;50.054;8.306;2023-08-06T04:35:53;98827.97;;;14.71;100.00
56671;BME280;42545;50.054;8.306;2023-08-06T04:38:22;98828.94;;;14.67;100.00
56671;BME280;42545;50.054;8.306;2023-08-06T04:40:49;98828.06;;;14.66;100.00
56671;BME280;42545;50.054;8.306;2023-08-06T04:43:16;98826.34;;;14.64;100.00
56671;BME280;42545;50.054;8.306;2023-08-06T04:45:47;98826.34;;;14.64;100.00
56671;BME280;42545;50.054;8.306;2023-08-06T04:48:14;98822.00;;;14.59;100.00
56671;BME280;42545;50.054;8.306;2023-08-06T04:50:43;98827.28;;;14.61;100.00
56671;BME280;42545;50.054;8.306;2023-08-06T04:53:10;98825.59;;;14.58;100.00
56671;BME280;42545;50.054;8.306;2023-08-06T04:55:37;98828.22;;;14.57;100.00
56671;BME280;42545;50.054;8.306;2023-08-06T04:58:04;98827.34;;;14.56;100.00
56671;BME280;42545;50.054;8.306;2023-08-06T05:00:31;98834.44;;;14.57;100.00
56671;BME280;42545;50.054;8.306;2023-08-06T05:02:59;98822.09;;;14.53;100.00
56671;BME280;42545;50.054;8.306;2023-08-06T05:05:26;98820.34;;;14.52;100.00
56671;BME280;42545;50.054;8.306;2023-08-06T05:07:54;98824.75;;;14.53;100.00
56671;BME280;42545;50.054;8.306;2023-08-06T05:10:21;98825.66;;;14.52;100.00
56671;BME280;42545;50.054;8.306;2023-08-06T05:12:48;98828.31;;;14.52;100.00
56671;BME280;42545;50.054;8.306;2023-08-06T05:15:14;98827.47;;;14.50;100.00
56671;BME280;42545;50.054;8.306;2023-08-06T05:17:41;98820.38;;;14.49;100.00
56671;BME280;42545;50.054;8.306;2023-08-06T05:20:11;98819.50;;;14.50;100.00
56671;BME280;42545;50.054;8.306;2023-08-06T05:22:38;98816.03;;;14.47;100.00
56671;BME280;42545;50.054;8.306;2023-08-06T05:25:05;98825.69;;;14.49;100.00
56671;BME280;42545;50.054;8.306;2023-08-06T05:27:33;98821.34;;;14.47;100.00
56671;BME280;42545;50.054;8.306;2023-08-06T05:30:00;98824.91;;;14.46;100.00
56671;BME280;42545;50.054;8.306;2023-08-06T05:32:27;98814.34;;;14.42;100.00
56671;BME280;42545;50.054;8.306;2023-08-06T05:34:53;98818.84;;;14.39;100.00
56671;BME280;42545;50.054;8.306;2023-08-06T05:37:22;98825.84;;;14.41;100.00
56671;BME280;42545;50.054;8.306;2023-08-06T05:39:49;98820.50;;;14.45;100.00
56671;BME280;42545;50.054;8.306;2023-08-06T05:42:16;98824.94;;;14.44;100.00
56671;BME280;42545;50.054;8.306;2023-08-06T05:44:43;98827.66;;;14.39;100.00
56671;BME280;42545;50.054;8.306;2023-08-06T05:47:10;98825.94;;;14.38;100.00
56671;BME280;42545;50.054;8.306;2023-08-06T05:49:37;98828.59;;;14.38;100.00
56671;BME280;42545;50.054;8.306;2023-08-06T05:52:05;98824.16;;;14.39;100.00
56671;BME280;42545;50.054;8.306;2023-08-06T05:54:35;98830.28;;;14.41;100.00
56671;BME280;42545;50.054;8.306;2023-08-06T05:57:03;98831.19;;;14.40;100.00
56671;BME280;42545;50.054;8.306;2023-08-06T05:59:30;98827.66;;;14.39;100.00
56671;BME280;42545;50.054;8.306;2023-08-06T06:01:57;98829.41;;;14.42;100.00
56671;BME280;42545;50.054;8.306;2023-08-06T06:04:24;98832.09;;;14.39;100.00
56671;BME280;42545;50.054;8.306;2023-08-06T06:06:51;98829.53;;;14.34;100.00
56671;BME280;42545;50.054;8.306;2023-08-06T06:09:18;98826.09;;;14.29;100.00
56671;BME280;42545;50.054;8.306;2023-08-06T06:11:46;98831.47;;;14.26;100.00
56671;BME280;42545;50.054;8.306;2023-08-06T06:14:15;98830.63;;;14.24;100.00
56671;BME280;42545;50.054;8.306;2023-08-06T06:16:42;98832.44;;;14.22;100.00
56671;BME280;42545;50.054;8.306;2023-08-06T06:19:09;98838.63;;;14.21;100.00
56671;BME280;42545;50.054;8.306;2023-08-06T06:21:36;98830.69;;;14.19;100.00
56671;BME280;42545;50.054;8.306;2023-08-06T06:24:04;98837.84;;;14.14;100.00
56671;BME280;42545;50.054;8.306;2023-08-06T06:26:32;98839.66;;;14.12;100.00
56671;BME280;42545;50.054;8.306;2023-08-06T06:29:01;98836.16;;;14.10;100.00
56671;BME280;42545;50.054;8.306;2023-08-06T06:31:28;98840.63;;;14.07;100.00
56671;BME280;42545;50.054;8.306;2023-08-06T06:33:56;98843.31;;;14.05;100.00
56671;BME280;42545;50.054;8.306;2023-08-06T06:36:24;98834.59;;;13.98;100.00
56671;BME280;42545;50.054;8.306;2023-08-06T06:38:50;98844.25;;;14.02;100.00
56671;BME280;42545;50.054;8.306;2023-08-06T06:41:18;98843.31;;;14.03;100.00
56671;BME280;42545;50.054;8.306;2023-08-06T06:43:44;98837.16;;;14.03;100.00
56671;BME280;42545;50.054;8.306;2023-08-06T06:46:13;98841.59;;;14.02;100.00
56671;BME280;42545;50.054;8.306;2023-08-06T06:48:40;98839.81;;;14.03;100.00
56671;BME280;42545;50.054;8.306;2023-08-06T06:51:07;98844.25;;;14.02;100.00
56671;BME280;42545;50.054;8.306;2023-08-06T06:53:35;98846.03;;;14.02;100.00
56671;BME280;42545;50.054;8.306;2023-08-06T06:56:03;98846.94;;;13.99;100.00
56671;BME280;42545;50.054;8.306;2023-08-06T06:58:30;98841.63;;;13.99;100.00
56671;BME280;42545;50.054;8.306;2023-08-06T07:00:58;98835.47;;;13.99;100.00
56671;BME280;42545;50.054;8.306;2023-08-06T07:03:27;98841.63;;;13.99;100.00
56671;BME280;42545;50.054;8.306;2023-08-06T07:05:57;98830.22;;;13.94;100.00
56671;BME280;42545;50.054;8.306;2023-08-06T07:08:25;98834.66;;;13.94;100.00
56671;BME280;42545;50.054;8.306;2023-08-06T07:10:59;98844.28;;;13.99;100.00
56671;BME280;42545;50.054;8.306;2023-08-06T07:13:27;98839.00;;;13.98;100.00
56671;BME280;42545;50.054;8.306;2023-08-06T07:15:55;98838.13;;;13.99;100.00
56671;BME280;42545;50.054;8.306;2023-08-06T07:18:26;98841.63;;;14.01;100.00
56671;BME280;42545;50.054;8.306;2023-08-06T07:20:54;98846.91;;;14.01;100.00
56671;BME280;42545;50.054;8.306;2023-08-06T07:23:22;98844.28;;;13.99;100.00
56671;BME280;42545;50.054;8.306;2023-08-06T07:25:49;98843.41;;;14.00;100.00
56671;BME280;42545;50.054;8.306;2023-08-06T07:28:16;98847.75;;;14.04;100.00
56671;BME280;42545;50.054;8.306;2023-08-06T07:30:47;98850.34;;;14.08;100.00
56671;BME280;42545;50.054;8.306;2023-08-06T07:33:14;98853.84;;;14.10;100.00
56671;BME280;42545;50.054;8.306;2023-08-06T07:35:43;98852.03;;;14.13;100.00
56671;BME280;42545;50.054;8.306;2023-08-06T07:38:10;98847.63;;;14.11;100.00
56671;BME280;42545;50.054;8.306;2023-08-06T07:40:38;98850.25;;;14.12;100.00
56671;BME280;42545;50.054;8.306;2023-08-06T07:43:05;98852.88;;;14.15;100.00
56671;BME280;42545;50.054;8.306;2023-08-06T07:45:35;98854.59;;;14.18;100.00
56671;BME280;42545;50.054;8.306;2023-08-06T07:48:03;98850.09;;;14.21;100.00
56671;BME280;42545;50.054;8.306;2023-08-06T07:50:29;98847.34;;;14.28;100.00
56671;BME280;42545;50.054;8.306;2023-08-06T07:52:58;98846.28;;;14.36;100.00
56671;BME280;42545;50.054;8.306;2023-08-06T07:55:25;98833.88;;;14.38;100.00
56671;BME280;42545;50.054;8.306;2023-08-06T07:57:51;98837.25;;;14.47;100.00
56671;BME280;42545;50.054;8.306;2023-08-06T08:00:18;98824.94;;;14.44;100.00
56671;BME280;42545;50.054;8.306;2023-08-06T08:02:45;98831.78;;;14.57;100.00
56671;BME280;42545;50.054;8.306;2023-08-06T08:05:14;98828.22;;;14.57;100.00
56671;BME280;42545;50.054;8.306;2023-08-06T08:07:41;98833.53;;;14.57;100.00
56671;BME280;42545;50.054;8.306;2023-08-06T08:10:11;98839.66;;;14.62;100.00
56671;BME280;42545;50.054;8.306;2023-08-06T08:12:38;98830.78;;;14.63;100.00
56671;BME280;42545;50.054;8.306;2023-08-06T08:15:06;98834.25;;;14.67;100.00
56671;BME280;42545;50.054;8.306;2023-08-06T08:17:33;98841.19;;;14.74;100.00
56671;BME280;42545;50.054;8.306;2023-08-06T08:20:01;98842.03;;;14.76;100.00
56671;BME280;42545;50.054;8.306;2023-08-06T08:22:28;98837.66;;;14.75;100.00
56671;BME280;42545;50.054;8.306;2023-08-06T08:24:55;98830.56;;;14.75;100.00
56671;BME280;42545;50.054;8.306;2023-08-06T08:27:23;98828.72;;;14.79;100.00
56671;BME280;42545;50.054;8.306;2023-08-06T08:29:51;98825.19;;;14.78;100.00
56671;BME280;42545;50.054;8.306;2023-08-06T08:32:18;98821.72;;;14.75;100.00
56671;BME280;42545;50.054;8.306;2023-08-06T08:34:45;98833.16;;;14.78;100.00
56671;BME280;42545;50.054;8.306;2023-08-06T08:37:13;98828.69;;;14.80;100.00
56671;BME280;42545;50.054;8.306;2023-08-06T08:39:40;98817.16;;;14.80;100.00
56671;BME280;42545;50.054;8.306;2023-08-06T08:42:08;98814.66;;;14.72;100.00
56671;BME280;42545;50.054;8.306;2023-08-06T08:44:38;98818.09;;;14.79;100.00
56671;BME280;42545;50.054;8.306;2023-08-06T08:47:06;98819.78;;;14.82;100.00
56671;BME280;42545;50.054;8.306;2023-08-06T08:49:35;98808.34;;;14.78;100.00
56671;BME280;42545;50.054;8.306;2023-08-06T08:52:04;98812.63;;;14.85;100.00
56671;BME280;42545;50.054;8.306;2023-08-06T08:54:32;98808.03;;;14.95;100.00
56671;BME280;42545;50.054;8.306;2023-08-06T08:56:59;98813.00;;;15.10;100.00
56671;BME280;42545;50.054;8.306;2023-08-06T08:59:28;98818.84;;;15.26;100.00
56671;BME280;42545;50.054;8.306;2023-08-06T09:01:57;98815.94;;;15.37;100.00
56671;BME280;42545;50.054;8.306;2023-08-06T09:04:29;98813.94;;;15.47;100.00
56671;BME280;42545;50.054;8.306;2023-08-06T09:06:58;98812.91;;;15.52;100.00
56671;BME280;42545;50.054;8.306;2023-08-06T09:09:28;98806.50;;;15.61;100.00
56671;BME280;42545;50.054;8.306;2023-08-06T09:12:01;98807.28;;;15.66;100.00
56671;BME280;42545;50.054;8.306;2023-08-06T09:14:28;98815.13;;;15.71;100.00
56671;BME280;42545;50.054;8.306;2023-08-06T09:16:57;98812.31;;;15.79;100.00
56671;BME280;42545;50.054;8.306;2023-08-06T09:19:26;98811.38;;;15.81;100.00
56671;BME280;42545;50.054;8.306;2023-08-06T09:21:56;98805.94;;;15.86;100.00
56671;BME280;42545;50.054;8.306;2023-08-06T09:24:23;98801.50;;;15.86;100.00
56671;BME280;42545;50.054;8.306;2023-08-06T09:26:51;98809.28;;;15.94;100.00
56671;BME280;42545;50.054;8.306;2023-08-06T09:29:18;98810.03;;;15.99;100.00
56671;BME280;42545;50.054;8.306;2023-08-06T09:31:46;98814.34;;;16.05;100.00
56671;BME280;42545;50.054;8.306;2023-08-06T09:34:18;98808.03;;;16.07;100.00
56671;BME280;42545;50.054;8.306;2023-08-06T09:36:46;98804.47;;;16.08;100.00
56671;BME280;42545;50.054;8.306;2023-08-06T09:39:15;98799.97;;;16.12;100.00
56671;BME280;42545;50.054;8.306;2023-08-06T09:41:42;98804.47;;;16.08;100.00
56671;BME280;42545;50.054;8.306;2023-08-06T09:44:19;98814.41;;;16.02;100.00
56671;BME280;42545;50.054;8.306;2023-08-06T09:46:47;98812.59;;;16.02;100.00
56671;BME280;42545;50.054;8.306;2023-08-06T09:49:17;98817.97;;;16.01;100.00
56671;BME280;42545;50.054;8.306;2023-08-06T09:51:45;98823.34;;;15.99;100.00
56671;BME280;42545;50.054;8.306;2023-08-06T09:54:13;98826.00;;;15.99;100.00
56671;BME280;42545;50.054;8.306;2023-08-06T09:56:43;98829.53;;;16.00;100.00
56671;BME280;42545;50.054;8.306;2023-08-06T09:59:10;98811.28;;;15.84;100.00
56671;BME280;42545;50.054;8.306;2023-08-06T10:01:37;98825.47;;;15.85;100.00
56671;BME280;42545;50.054;8.306;2023-08-06T10:04:05;98815.91;;;15.78;100.00
56671;BME280;42545;50.054;8.306;2023-08-06T10:06:35;98811.66;;;15.67;100.00
56671;BME280;42545;50.054;8.306;2023-08-06T10:09:02;98815.16;;;15.69;100.00
56671;BME280;42545;50.054;8.306;2023-08-06T10:11:29;98822.19;;;15.73;100.00
56671;BME280;42545;50.054;8.306;2023-08-06T10:14:00;98820.34;;;15.77;100.00
56671;BME280;42545;50.054;8.306;2023-08-06T10:16:28;98821.06;;;15.84;100.00
56671;BME280;42545;50.054;8.306;2023-08-06T10:18:56;98822.72;;;15.88;100.00
56671;BME280;42545;50.054;8.306;2023-08-06T10:21:24;98823.34;;;15.99;100.00
56671;BME280;42545;50.054;8.306;2023-08-06T10:23:55;98811.28;;;16.19;100.00
56671;BME280;42545;50.054;8.306;2023-08-06T10:26:25;98818.72;;;16.40;100.00
56671;BME280;42545;50.054;8.306;2023-08-06T10:28:52;98816.72;;;16.48;100.00
56671;BME280;42545;50.054;8.306;2023-08-06T10:31:19;98818.59;;;16.45;100.00
56671;BME280;42545;50.054;8.306;2023-08-06T10:33:47;98825.88;;;16.38;100.00
56671;BME280;42545;50.054;8.306;2023-08-06T10:36:15;98818.84;;;16.36;100.00
56671;BME280;42545;50.054;8.306;2023-08-06T10:38:46;98816.88;;;16.42;100.00
56671;BME280;42545;50.054;8.306;2023-08-06T10:41:23;98815.56;;;16.57;100.00
56671;BME280;42545;50.054;8.306;2023-08-06T10:43:50;98810.78;;;16.70;100.00
56671;BME280;42545;50.054;8.306;2023-08-06T10:46:22;98806.91;;;16.83;100.00
56671;BME280;42545;50.054;8.306;2023-08-06T10:48:49;98820.72;;;16.96;100.00
56671;BME280;42545;50.054;8.306;2023-08-06T10:51:17;98836.72;;;16.96;100.00
56671;BME280;42545;50.054;8.306;2023-08-06T10:53:44;98838.13;;;16.77;100.00
56671;BME280;42545;50.054;8.306;2023-08-06T10:56:12;98836.03;;;16.55;100.00
56671;BME280;42545;50.054;8.306;2023-08-06T10:58:41;98830.16;;;16.44;100.00
56671;BME280;42545;50.054;8.306;2023-08-06T11:01:09;98837.41;;;16.37;100.00
56671;BME280;42545;50.054;8.306;2023-08-06T11:03:36;98838.34;;;16.36;100.00
56671;BME280;42545;50.054;8.306;2023-08-06T11:06:06;98833.13;;;16.31;100.00
56671;BME280;42545;50.054;8.306;2023-08-06T11:08:34;98825.34;;;16.24;100.00
56671;BME280;42545;50.054;8.306;2023-08-06T11:11:07;98826.28;;;16.23;100.00
56671;BME280;42545;50.054;8.306;2023-08-06T11:13:37;98834.56;;;16.12;100.00
56671;BME280;42545;50.054;8.306;2023-08-06T11:16:09;98849.06;;;15.99;100.00
56671;BME280;42545;50.054;8.306;2023-08-06T11:18:47;98870.00;;;15.76;100.00
56671;BME280;42545;50.054;8.306;2023-08-06T11:21:14;98871.47;;;15.49;100.00
56671;BME280;42545;50.054;8.306;2023-08-06T11:23:42;98881.78;;;15.24;100.00
56671;BME280;42545;50.054;8.306;2023-08-06T11:26:12;98901.63;;;15.06;100.00
56671;BME280;42545;50.054;8.306;2023-08-06T11:28:38;98902.91;;;14.87;100.00
56671;BME280;42545;50.054;8.306;2023-08-06T11:31:18;98907.78;;;14.61;100.00
56671;BME280;42545;50.054;8.306;2023-08-06T11:33:46;98918.53;;;14.54;100.00
56671;BME280;42545;50.054;8.306;2023-08-06T11:36:15;98916.97;;;14.42;100.00
56671;BME280;42545;50.054;8.306;2023-08-06T11:38:43;98914.50;;;14.31;100.00
56671;BME280;42545;50.054;8.306;2023-08-06T11:41:11;98923.34;;;14.30;100.00
56671;BME280;42545;50.054;8.306;2023-08-06T11:43:38;98927.97;;;14.19;100.00
56671;BME280;42545;50.054;8.306;2023-08-06T11:46:05;98930.75;;;14.11;100.00
56671;BME280;42545;50.054;8.306;2023-08-06T11:48:50;98932.56;;;14.09;100.00
56671;BME280;42545;50.054;8.306;2023-08-06T11:51:17;98941.25;;;14.17;100.00
56671;BME280;42545;50.054;8.306;2023-08-06T11:53:48;98946.44;;;14.25;100.00
56671;BME280;42545;50.054;8.306;2023-08-06T11:56:17;98930.66;;;14.17;100.00
56671;BME280;42545;50.054;8.306;2023-08-06T11:58:44;98948.22;;;14.25;100.00
56671;BME280;42545;50.054;8.306;2023-08-06T12:01:11;98960.59;;;14.26;100.00
56671;BME280;42545;50.054;8.306;2023-08-06T12:03:43;98964.34;;;14.11;100.00
56671;BME280;42545;50.054;8.306;2023-08-06T12:06:10;98964.44;;;14.06;100.00
56671;BME280;42545;50.054;8.306;2023-08-06T12:08:37;98968.91;;;14.01;100.00
56671;BME280;42545;50.054;8.306;2023-08-06T12:11:06;98977.94;;;13.89;100.00
56671;BME280;42545;50.054;8.306;2023-08-06T12:13:34;98977.13;;;13.84;100.00
56671;BME280;42545;50.054;8.306;2023-08-06T12:16:01;98960.53;;;13.71;100.00
56671;BME280;42545;50.054;8.306;2023-08-06T12:18:30;98993.09;;;13.79;100.00
56671;BME280;42545;50.054;8.306;2023-08-06T12:21:02;98993.22;;;13.70;100.00
56671;BME280;42545;50.054;8.306;2023-08-06T12:23:29;98996.69;;;13.74;100.00
56671;BME280;42545;50.054;8.306;2023-08-06T12:25:58;98980.03;;;13.65;100.00
56671;BME280;42545;50.054;8.306;2023-08-06T12:28:24;98992.28;;;13.74;100.00
56671;BME280;42545;50.054;8.306;2023-08-06T12:30:55;98993.91;;;13.84;100.00
56671;BME280;42545;50.054;8.306;2023-08-06T12:33:22;98990.28;;;13.90;100.00
56671;BME280;42545;50.054;8.306;2023-08-06T12:35:49;99003.34;;;14.06;100.00
56671;BME280;42545;50.054;8.306;2023-08-06T12:38:21;99005.91;;;14.12;100.00
56671;BME280;42545;50.054;8.306;2023-08-06T12:40:49;99006.75;;;14.14;100.00
56671;BME280;42545;50.054;8.306;2023-08-06T12:43:16;99012.06;;;14.12;100.00
56671;BME280;42545;50.054;8.306;2023-08-06T12:45:43;99017.53;;;14.01;100.00
56671;BME280;42545;50.054;8.306;2023-08-06T12:48:11;99016.81;;;13.90;100.00
56671;BME280;42545;50.054;8.306;2023-08-06T12:50:39;99024.06;;;13.76;100.00
56671;BME280;42545;50.054;8.306;2023-08-06T12:53:05;99024.25;;;13.62;100.00
56671;BME280;42545;50.054;8.306;2023-08-06T12:55:34;99037.66;;;13.51;100.00